Time;durP1;ratioP1;P1;durP2;ratioP2;P2;SDS_P1;SDS_P2;PMS_P1;PMS_P2;Temp;Humidity;BMP_temperature;BMP_pressure;BME280_temperature;BME280_humidity;BME280_pressure;Samples;Min_cycle;Max_cycle;Signal;HPM_P1;HPM_P2
2023/04/14 00:00:11;;;;;;;3.40;2.00;;;;;;;7.78;90.87;100698.22;4908276;29;20517;-80
2023/04/14 00:02:36;;;;;;;6.05;2.22;;;;;;;7.72;91.00;100694.91;4901780;29;20473;-80
2023/04/14 00:05:03;;;;;;;5.93;2.28;;;;;;;7.84;91.00;100705.13;4919120;29;21798;-80
2023/04/14 00:07:28;;;;;;;5.55;2.28;;;;;;;7.78;91.59;100694.59;4920749;29;20016;-80
2023/04/14 00:09:53;;;;;;;4.13;1.92;;;;;;;7.76;92.28;100708.91;4919392;29;20042;-80
2023/04/14 00:12:19;;;;;;;4.20;2.30;;;;;;;7.74;92.11;100705.69;4916734;29;20031;-80
2023/04/14 00:14:44;;;;;;;5.90;2.53;;;;;;;7.67;92.79;100711.91;4893433;29;20041;-80
2023/04/14 00:17:10;;;;;;;9.38;3.88;;;;;;;7.69;92.50;100708.75;4914350;29;20040;-80
2023/04/14 00:19:35;;;;;;;3.35;1.98;;;;;;;7.72;92.67;100714.41;4920582;29;20079;-80
2023/04/14 00:22:01;;;;;;;3.33;2.03;;;;;;;7.63;92.11;100699.88;4921103;29;20090;-80
2023/04/14 00:24:26;;;;;;;6.53;2.25;;;;;;;7.65;92.81;100716.19;4912849;29;20411;-80
2023/04/14 00:26:51;;;;;;;6.32;2.63;;;;;;;7.52;93.54;100718.28;4922019;29;21923;-80
2023/04/14 00:29:17;;;;;;;4.82;2.33;;;;;;;7.59;93.69;100731.56;4899318;29;21183;-80
2023/04/14 00:31:42;;;;;;;6.95;2.63;;;;;;;7.57;94.02;100719.97;4918573;29;20031;-80
2023/04/14 00:34:07;;;;;;;5.95;2.30;;;;;;;7.52;93.75;100727.44;4906613;29;20035;-80
2023/04/14 00:36:33;;;;;;;4.22;2.72;;;;;;;7.48;94.37;100725.75;4912677;29;20095;-80
2023/04/14 00:38:59;;;;;;;4.45;2.42;;;;;;;7.43;94.85;100728.81;4914248;29;20035;-80
2023/04/14 00:41:25;;;;;;;5.70;2.47;;;;;;;7.43;94.96;100729.63;4914556;29;20046;-80
2023/04/14 00:43:54;;;;;;;4.90;2.38;;;;;;;7.39;95.00;100727.91;4897626;29;20059;-80
2023/04/14 00:46:19;;;;;;;6.07;2.85;;;;;;;7.36;95.29;100736.97;4908128;29;20031;-80
2023/04/14 00:48:45;;;;;;;3.63;2.00;;;;;;;7.37;95.16;100742.19;4905151;29;20024;-80
2023/04/14 00:51:11;;;;;;;3.15;2.10;;;;;;;7.34;95.07;100731.78;4915011;29;20067;-80
2023/04/14 00:53:37;;;;;;;4.18;2.50;;;;;;;7.34;95.32;100737.34;4901287;29;20058;-80
2023/04/14 00:56:03;;;;;;;10.55;2.50;;;;;;;7.28;95.48;100733.22;4905037;29;20028;-80
2023/04/14 00:58:29;;;;;;;9.18;2.50;;;;;;;7.28;95.67;100738.78;4903090;29;20406;-80
2023/04/14 01:00:54;;;;;;;7.32;2.78;;;;;;;7.17;95.68;100721.81;4906689;29;20398;-80
2023/04/14 01:03:24;;;;;;;6.50;2.80;;;;;;;7.23;95.98;100734.31;4903076;29;20039;-80
2023/04/14 01:05:50;;;;;;;6.35;2.20;;;;;;;7.23;95.67;100727.91;4920743;29;20766;-80
2023/04/14 01:08:16;;;;;;;3.90;2.72;;;;;;;7.21;95.93;100733.84;4913486;29;20059;-79
2023/04/14 01:10:54;;;;;;;7.32;2.78;;;;;;;7.18;96.24;100740.13;4900705;29;20069;-80
2023/04/14 01:13:41;;;;;;;4.63;2.30;;;;;;;7.22;96.05;100748.56;4923811;29;20028;-80
2023/04/14 01:16:21;;;;;;;4.18;2.72;;;;;;;7.20;96.06;100748.13;4907019;29;20032;-80
2023/04/14 01:19:27;;;;;;;9.38;3.67;;;;;;;7.13;96.09;100754.31;4912055;29;20027;-80
2023/04/14 01:21:56;;;;;;;3.15;2.20;;;;;;;6.90;96.76;100745.75;4915548;29;20059;-80
2023/04/14 01:24:32;;;;;;;4.22;2.85;;;;;;;6.96;97.22;100752.69;4893272;29;20527;-80
2023/04/14 01:27:28;;;;;;;8.93;2.75;;;;;;;6.97;97.08;100757.06;4911736;29;20177;-80
2023/04/14 01:30:20;;;;;;;8.05;2.95;;;;;;;7.10;96.66;100755.84;4916993;29;20145;-80
2023/04/14 01:32:48;;;;;;;7.15;2.55;;;;;;;7.07;96.74;100748.19;4920912;29;20055;-79
2023/04/14 01:35:23;;;;;;;4.85;2.85;;;;;;;7.05;96.01;100752.50;4904232;29;20404;-80
2023/04/14 01:37:55;;;;;;;7.90;2.55;;;;;;;7.10;96.63;100749.44;4915062;29;21264;-80
2023/04/14 01:40:22;;;;;;;10.15;2.88;;;;;;;6.97;97.13;100756.25;4922287;29;20023;-80
2023/04/14 01:42:55;;;;;;;7.32;4.07;;;;;;;6.88;96.98;100739.72;4923849;29;20408;-80
2023/04/14 01:45:26;;;;;;;6.22;2.78;;;;;;;6.99;96.48;100748.38;4906170;29;20083;-80
2023/04/14 01:47:52;;;;;;;7.55;2.25;;;;;;;6.98;96.14;100750.34;4907951;29;20062;-79
2023/04/14 01:50:21;;;;;;;7.35;3.03;;;;;;;7.05;96.00;100756.09;4927048;29;21523;-80
2023/04/14 01:52:50;;;;;;;4.03;2.58;;;;;;;7.01;96.58;100769.09;4922612;29;20039;-80
2023/04/14 01:55:18;;;;;;;7.60;3.10;;;;;;;6.95;96.59;100758.59;4901380;29;20066;-80
2023/04/14 01:57:47;;;;;;;4.38;2.85;;;;;;;6.93;96.57;100775.63;4904128;29;20382;-80
2023/04/14 02:00:15;;;;;;;5.57;2.63;;;;;;;6.95;96.51;100776.09;4926208;29;20090;-80
2023/04/14 02:02:42;;;;;;;3.97;2.53;;;;;;;6.95;96.76;100781.66;4923869;29;20039;-79
2023/04/14 02:05:09;;;;;;;5.18;2.30;;;;;;;6.89;96.74;100772.78;4901215;29;20074;-80
2023/04/14 02:07:36;;;;;;;4.28;2.60;;;;;;;6.69;97.57;100774.59;4903764;29;20039;-80
2023/04/14 02:10:05;;;;;;;5.90;2.60;;;;;;;6.67;97.72;100774.13;4907272;29;20066;-80
2023/04/14 02:12:30;;;;;;;3.55;2.30;;;;;;;6.65;98.31;100775.66;4922970;29;20122;-80
2023/04/14 02:14:58;;;;;;;11.77;3.47;;;;;;;6.50;99.20;100766.91;4921092;29;20031;-80
2023/04/14 02:17:24;;;;;;;6.55;2.58;;;;;;;6.59;98.02;100775.09;4914059;29;20058;-80
2023/04/14 02:19:53;;;;;;;5.35;3.05;;;;;;;6.65;97.84;100781.22;4902550;29;20465;-80
2023/04/14 02:22:18;;;;;;;5.82;2.63;;;;;;;6.71;97.12;100772.25;4916418;29;20482;-79
2023/04/14 02:24:46;;;;;;;4.60;2.95;;;;;;;6.79;97.29;100780.81;4919516;29;20039;-80
2023/04/14 02:27:17;;;;;;;5.93;3.00;;;;;;;6.72;96.80;100762.78;4918108;29;20040;-80
2023/04/14 02:29:51;;;;;;;8.50;3.22;;;;;;;6.76;96.75;100779.53;4924509;29;20421;-80
2023/04/14 02:32:22;;;;;;;7.47;2.88;;;;;;;6.65;97.36;100784.81;4906682;29;20042;-80
2023/04/14 02:35:00;;;;;;;8.82;4.10;;;;;;;6.59;97.51;100782.63;4917399;29;20063;-80
2023/04/14 02:37:32;;;;;;;5.72;2.92;;;;;;;6.59;97.21;100789.00;4924865;29;20387;-79
2023/04/14 02:40:02;;;;;;;5.95;3.15;;;;;;;6.70;97.25;100792.91;4906654;29;20270;-79
2023/04/14 02:42:29;;;;;;;4.97;3.03;;;;;;;6.52;97.34;100780.47;4922872;29;20410;-80
2023/04/14 02:45:11;;;;;;;4.07;2.85;;;;;;;6.67;96.70;100799.16;4905728;29;20039;-80
2023/04/14 02:47:40;;;;;;;5.88;2.78;;;;;;;6.56;97.13;100797.25;4922178;29;20056;-80
2023/04/14 02:50:10;;;;;;;4.43;2.70;;;;;;;6.56;97.57;100795.28;4922127;29;20039;-80
2023/04/14 02:52:37;;;;;;;10.65;2.95;;;;;;;6.56;97.51;100800.84;4907920;29;20741;-79
2023/04/14 02:55:05;;;;;;;5.43;2.75;;;;;;;6.50;97.42;100793.91;4910462;29;20038;-80
2023/04/14 02:57:32;;;;;;;7.45;3.05;;;;;;;6.53;96.70;100789.59;4906016;29;20040;-79
2023/04/14 02:59:59;;;;;;;9.00;3.17;;;;;;;6.49;96.76;100792.28;4928203;29;20126;-79
2023/04/14 03:02:25;;;;;;;6.50;3.10;;;;;;;6.51;96.76;100795.50;4920786;29;20355;-80
2023/04/14 03:04:52;;;;;;;7.68;3.03;;;;;;;6.30;96.83;100777.06;4922049;29;20054;-80
2023/04/14 03:07:20;;;;;;;4.55;2.80;;;;;;;6.44;96.98;100796.13;4922665;29;20501;-79
2023/04/14 03:09:49;;;;;;;6.43;3.33;;;;;;;6.48;96.81;100796.22;4923642;29;20032;-79
2023/04/14 03:12:15;;;;;;;10.13;3.65;;;;;;;6.41;96.52;100798.78;4922806;29;20031;-80
2023/04/14 03:14:43;;;;;;;5.72;3.38;;;;;;;6.44;96.94;100798.09;4916130;29;20056;-79
2023/04/14 03:17:10;;;;;;;7.68;3.20;;;;;;;6.39;96.60;100799.16;4908576;29;20122;-79
2023/04/14 03:19:39;;;;;;;6.53;3.13;;;;;;;6.39;96.37;100788.03;4916535;29;20028;-79
2023/04/14 03:22:05;;;;;;;8.00;3.35;;;;;;;6.46;96.82;100804.09;4906317;29;20028;-79
2023/04/14 03:24:33;;;;;;;8.05;3.55;;;;;;;6.44;96.59;100809.22;4920915;29;20032;-79
2023/04/14 03:27:06;;;;;;;8.00;3.33;;;;;;;6.39;96.83;100804.72;4899925;29;20051;-79
2023/04/14 03:29:36;;;;;;;7.10;3.15;;;;;;;6.36;97.76;100801.81;4919876;29;20036;-80
2023/04/14 03:32:05;;;;;;;6.10;3.10;;;;;;;6.40;97.03;100811.06;4913619;29;20130;-80
2023/04/14 03:34:33;;;;;;;8.52;4.30;;;;;;;6.40;96.99;100811.88;4917193;29;20027;-79
2023/04/14 03:37:00;;;;;;;6.10;2.92;;;;;;;6.34;96.77;100806.91;4919116;29;20047;-80
2023/04/14 03:39:29;;;;;;;6.35;3.33;;;;;;;6.33;97.42;100799.75;4923439;29;20047;-80
2023/04/14 03:41:56;;;;;;;6.60;3.10;;;;;;;6.32;97.55;100804.47;4923706;29;20028;-79
2023/04/14 03:44:24;;;;;;;5.97;3.28;;;;;;;6.28;97.08;100812.72;4922036;29;20071;-79
2023/04/14 03:46:49;;;;;;;8.45;3.38;;;;;;;6.29;97.63;100808.78;4901954;29;20134;-79
2023/04/14 03:49:17;;;;;;;10.15;5.03;;;;;;;6.21;97.97;100809.72;4899184;29;20036;-79
2023/04/14 03:51:44;;;;;;;7.13;3.63;;;;;;;6.27;98.02;100813.88;4901743;29;20589;-79
2023/04/14 03:54:14;;;;;;;9.55;3.33;;;;;;;6.26;97.91;100817.81;4922856;29;20493;-79
2023/04/14 03:56:44;;;;;;;8.02;3.88;;;;;;;6.24;97.77;100820.16;4906452;29;20107;-79
2023/04/14 03:59:13;;;;;;;8.55;3.55;;;;;;;6.04;98.66;100804.41;4922208;29;20110;-79
2023/04/14 04:01:40;;;;;;;12.70;5.07;;;;;;;6.08;98.90;100824.78;4920918;29;20298;-79
2023/04/14 04:04:06;;;;;;;8.57;4.82;;;;;;;6.13;98.69;100826.53;4921151;29;20031;-79
2023/04/14 04:06:36;;;;;;;9.73;4.10;;;;;;;6.25;98.29;100820.94;4913662;29;20036;-79
2023/04/14 04:09:04;;;;;;;11.20;3.58;;;;;;;6.20;98.27;100824.78;4915397;29;20032;-80
2023/04/14 04:11:32;;;;;;;9.73;4.32;;;;;;;6.05;99.28;100828.25;4896990;29;20406;-79
2023/04/14 04:13:58;;;;;;;10.07;4.57;;;;;;;6.04;98.74;100818.31;4921488;29;20035;-79
2023/04/14 04:16:27;;;;;;;7.60;4.00;;;;;;;6.01;99.41;100822.59;4910460;29;20035;-79
2023/04/14 04:18:53;;;;;;;12.38;3.72;;;;;;;6.09;98.61;100829.19;4915616;29;20035;-79
2023/04/14 04:21:20;;;;;;;11.55;5.47;;;;;;;6.01;99.35;100828.16;4916833;29;20085;-79
2023/04/14 04:23:51;;;;;;;10.07;4.82;;;;;;;6.03;99.48;100827.78;4919581;29;20028;-79
2023/04/14 04:26:18;;;;;;;6.05;3.83;;;;;;;6.09;98.80;100827.22;4918981;29;20036;-79
2023/04/14 04:28:44;;;;;;;9.70;5.13;;;;;;;5.93;100.00;100833.81;4926186;29;20051;-79
2023/04/14 04:31:10;;;;;;;8.20;3.95;;;;;;;5.92;100.00;100824.63;4906964;29;20032;-79
2023/04/14 04:33:36;;;;;;;9.00;4.07;;;;;;;5.83;100.00;100833.09;4920125;29;20529;-79
2023/04/14 04:36:05;;;;;;;10.10;4.40;;;;;;;5.79;100.00;100817.47;4918782;29;20494;-80
2023/04/14 04:38:30;;;;;;;8.57;5.45;;;;;;;5.73;100.00;100833.53;4924479;29;20513;-79
2023/04/14 04:40:56;;;;;;;11.05;5.10;;;;;;;5.93;100.00;100825.47;4933494;29;20055;-79
2023/04/14 04:43:21;;;;;;;10.20;5.25;;;;;;;5.97;100.00;100826.44;4925627;29;20032;-79
2023/04/14 04:46:14;;;;;;;6.93;4.78;;;;;;;5.94;100.00;100841.78;4917385;29;20043;-79
2023/04/14 04:48:39;;;;;;;7.70;4.93;;;;;;;5.90;100.00;100836.13;4926473;29;20031;-79
2023/04/14 04:51:04;;;;;;;11.93;4.75;;;;;;;5.84;100.00;100840.28;4920737;29;20102;-79
2023/04/14 04:53:30;;;;;;;12.85;4.90;;;;;;;5.87;100.00;100844.31;4919388;29;20710;-79
2023/04/14 04:55:55;;;;;;;10.07;5.00;;;;;;;5.96;100.00;100844.25;4916876;29;20585;-79
2023/04/14 04:58:20;;;;;;;11.73;4.95;;;;;;;6.00;100.00;100848.75;4904005;29;20032;-79
2023/04/14 05:00:46;;;;;;;9.52;4.82;;;;;;;5.87;100.00;100839.56;4903028;29;20182;-79
2023/04/14 05:03:11;;;;;;;7.22;4.03;;;;;;;5.98;100.00;100845.50;4918573;29;20111;-79
2023/04/14 05:05:36;;;;;;;9.48;4.72;;;;;;;5.89;100.00;100848.38;4901606;29;20059;-79
2023/04/14 05:08:02;;;;;;;9.88;4.57;;;;;;;5.67;100.00;100851.59;4905370;29;20035;-79
2023/04/14 05:10:28;;;;;;;7.95;4.53;;;;;;;5.62;100.00;100846.28;4901329;29;20045;-79
2023/04/14 05:12:53;;;;;;;11.00;4.72;;;;;;;5.73;100.00;100849.41;4900567;29;20036;-79
2023/04/14 05:15:18;;;;;;;8.00;4.38;;;;;;;5.80;100.00;100844.09;4923938;29;20040;-79
2023/04/14 05:17:44;;;;;;;10.35;4.13;;;;;;;5.69;100.00;100847.34;4923307;29;20485;-79
2023/04/14 05:20:10;;;;;;;8.98;4.70;;;;;;;5.77;100.00;100840.03;4919768;29;20122;-79
2023/04/14 05:22:35;;;;;;;11.90;4.50;;;;;;;5.61;100.00;100837.13;4924948;29;20490;-79
2023/04/14 05:25:01;;;;;;;9.93;4.97;;;;;;;5.62;100.00;100838.75;4898001;29;20423;-79
2023/04/14 05:27:26;;;;;;;8.43;5.43;;;;;;;5.62;100.00;100843.50;4930280;29;20083;-80
2023/04/14 05:29:51;;;;;;;10.65;4.10;;;;;;;5.69;100.00;100849.28;4928566;29;20031;-79
2023/04/14 05:32:17;;;;;;;9.27;4.00;;;;;;;5.55;100.00;100846.03;4925095;29;20038;-79
2023/04/14 05:34:43;;;;;;;7.40;3.53;;;;;;;5.68;100.00;100831.00;4907291;29;20035;-79
2023/04/14 05:37:08;;;;;;;9.00;4.35;;;;;;;5.77;100.00;100848.38;4907018;29;20526;-79
2023/04/14 05:39:34;;;;;;;7.00;3.80;;;;;;;5.83;100.00;100846.97;4921420;29;20522;-79
2023/04/14 05:42:00;;;;;;;6.13;3.75;;;;;;;5.92;100.00;100855.19;4919952;29;20043;-79
2023/04/14 05:44:25;;;;;;;5.47;4.05;;;;;;;5.88;100.00;100852.31;4926487;29;20746;-79
2023/04/14 05:46:51;;;;;;;9.32;5.07;;;;;;;5.79;100.00;100848.81;4918168;29;20035;-79
2023/04/14 05:49:16;;;;;;;10.82;3.97;;;;;;;5.81;100.00;100857.63;4904929;29;20837;-79
2023/04/14 05:51:41;;;;;;;8.75;4.40;;;;;;;5.84;100.00;100854.19;4897401;29;20083;-79
2023/04/14 05:54:07;;;;;;;7.95;4.43;;;;;;;5.78;100.00;100863.88;4900024;29;20091;-79
2023/04/14 05:56:32;;;;;;;7.18;3.92;;;;;;;5.85;100.00;100849.41;4894236;29;20032;-79
2023/04/14 05:58:57;;;;;;;7.53;4.65;;;;;;;5.94;100.00;100855.66;4902685;29;20035;-79
2023/04/14 06:01:23;;;;;;;11.25;5.47;;;;;;;5.77;100.00;100853.13;4919756;29;20038;-79
2023/04/14 06:03:51;;;;;;;10.85;4.28;;;;;;;5.95;100.00;100856.53;4919502;29;20031;-79
2023/04/14 06:06:18;;;;;;;11.60;4.47;;;;;;;5.73;100.00;100854.97;4910126;29;20043;-79
2023/04/14 06:08:43;;;;;;;8.82;4.40;;;;;;;6.98;100.00;100858.88;4897854;29;20039;-82
2023/04/14 06:11:09;;;;;;;10.35;5.43;;;;;;;7.50;100.00;100866.25;4899979;29;20039;-77
2023/04/14 06:13:34;;;;;;;16.23;6.35;;;;;;;6.42;100.00;100854.03;4919190;29;20043;-78
2023/04/14 06:15:59;;;;;;;12.30;5.82;;;;;;;6.16;100.00;100846.09;4923864;29;20031;-78
2023/04/14 06:18:25;;;;;;;9.88;6.03;;;;;;;5.84;100.00;100851.41;4921059;29;20043;-77
2023/04/14 06:20:50;;;;;;;11.48;6.07;;;;;;;5.91;100.00;100853.59;4917810;29;20032;-78
2023/04/14 06:23:15;;;;;;;9.20;5.53;;;;;;;6.04;100.00;100854.44;4920499;29;20647;-78
2023/04/14 06:25:41;;;;;;;12.95;6.97;;;;;;;6.02;100.00;100851.19;4906283;29;20474;-78
2023/04/14 06:28:06;;;;;;;12.93;6.32;;;;;;;6.11;100.00;100846.31;4925434;29;20066;-78
2023/04/14 06:30:32;;;;;;;13.35;5.93;;;;;;;6.07;100.00;100854.56;4924816;29;20035;-77
2023/04/14 06:32:58;;;;;;;13.27;6.00;;;;;;;5.98;100.00;100841.94;4931759;29;20035;-78
2023/04/14 06:35:23;;;;;;;13.20;6.63;;;;;;;6.02;100.00;100840.06;4924880;29;20402;-78
2023/04/14 06:37:49;;;;;;;18.40;7.82;;;;;;;6.02;100.00;100851.19;4922026;29;20027;-77
2023/04/14 06:40:15;;;;;;;12.75;6.70;;;;;;;5.89;100.00;100837.25;4919477;29;20066;-78
2023/04/14 06:42:40;;;;;;;17.67;8.98;;;;;;;5.89;100.00;100842.00;4924161;29;20031;-77
2023/04/14 06:45:06;;;;;;;23.75;10.15;;;;;;;5.93;100.00;100839.38;4922663;29;20031;-78
2023/04/14 06:47:32;;;;;;;18.45;6.50;;;;;;;6.02;100.00;100840.88;4917309;29;20024;-78
2023/04/14 06:49:57;;;;;;;14.90;6.78;;;;;;;6.04;100.00;100851.66;4926702;29;20032;-77
2023/04/14 06:52:23;;;;;;;18.30;8.95;;;;;;;6.05;100.00;100844.94;4914034;29;21044;-78
2023/04/14 06:54:48;;;;;;;14.80;7.22;;;;;;;6.12;100.00;100842.38;4921697;29;20043;-78
2023/04/14 06:57:13;;;;;;;27.05;10.68;;;;;;;6.19;100.00;100833.47;4921765;29;20043;-77
2023/04/14 06:59:39;;;;;;;16.63;8.10;;;;;;;6.32;100.00;100840.63;4901851;29;20719;-78
2023/04/14 07:02:05;;;;;;;21.75;8.88;;;;;;;6.31;100.00;100842.59;4920544;29;20035;-78
2023/04/14 07:04:30;;;;;;;22.88;8.63;;;;;;;6.44;100.00;100839.78;4904189;29;20484;-78
2023/04/14 07:06:59;;;;;;;17.25;8.27;;;;;;;6.47;100.00;100841.88;4914393;29;20031;-78
2023/04/14 07:09:25;;;;;;;16.67;8.80;;;;;;;6.55;100.00;100843.69;4917883;29;20119;-77
2023/04/14 07:11:52;;;;;;;12.50;8.55;;;;;;;6.68;100.00;100842.53;4917310;29;20122;-77
2023/04/14 07:14:17;;;;;;;17.17;8.63;;;;;;;6.77;100.00;100842.38;4897940;29;20039;-77
2023/04/14 07:16:43;;;;;;;16.10;8.98;;;;;;;6.77;100.00;100838.75;4918681;29;20078;-77
2023/04/14 07:19:08;;;;;;;17.13;7.93;;;;;;;6.81;100.00;100843.28;4920086;29;20039;-77
2023/04/14 07:21:33;;;;;;;20.85;8.68;;;;;;;7.10;100.00;100839.34;4903994;29;21893;-77
2023/04/14 07:23:59;;;;;;;24.13;8.43;;;;;;;7.04;100.00;100843.56;4907372;29;20406;-77
2023/04/14 07:26:24;;;;;;;13.10;6.97;;;;;;;7.17;100.00;100843.47;4901705;29;20039;-77
2023/04/14 07:28:50;;;;;;;21.02;7.65;;;;;;;7.18;100.00;100839.53;4909812;29;20027;-77
2023/04/14 07:31:15;;;;;;;21.65;8.60;;;;;;;7.37;100.00;100839.66;4902558;29;20135;-77
2023/04/14 07:33:41;;;;;;;18.05;8.27;;;;;;;7.41;100.00;100842.53;4928615;29;20027;-77
2023/04/14 07:36:08;;;;;;;15.73;7.45;;;;;;;7.72;100.00;100844.53;4909730;29;20610;-77
2023/04/14 07:38:33;;;;;;;12.05;5.78;;;;;;;7.70;100.00;100833.75;4920939;29;20395;-77
2023/04/14 07:41:03;;;;;;;12.52;7.07;;;;;;;7.73;100.00;100846.16;4924651;29;20039;-77
2023/04/14 07:43:33;;;;;;;16.70;5.93;;;;;;;7.90;100.00;100836.63;4928505;29;20055;-77
2023/04/14 07:46:00;;;;;;;14.73;5.95;;;;;;;8.12;99.08;100837.97;4909435;29;20474;-77
2023/04/14 07:48:25;;;;;;;13.23;6.10;;;;;;;8.26;98.78;100838.25;4929039;29;20035;-77
2023/04/14 07:50:50;;;;;;;19.27;6.30;;;;;;;8.21;98.63;100841.34;4927719;29;20040;-77
2023/04/14 07:53:16;;;;;;;21.77;6.72;;;;;;;8.28;98.50;100837.91;4925986;29;20051;-77
2023/04/14 07:55:41;;;;;;;15.70;5.65;;;;;;;8.22;98.21;100842.97;4906412;29;20051;-77
2023/04/14 07:58:08;;;;;;;17.73;7.13;;;;;;;8.40;98.04;100839.78;4911223;29;20035;-77
2023/04/14 08:00:33;;;;;;;18.35;6.47;;;;;;;8.78;96.10;100850.22;4925250;29;20032;-77
2023/04/14 08:02:59;;;;;;;13.82;6.07;;;;;;;8.88;94.12;100843.25;4924369;29;20042;-77
2023/04/14 08:05:25;;;;;;;17.48;5.90;;;;;;;8.85;92.80;100846.75;4925707;29;20035;-77
2023/04/14 08:07:50;;;;;;;14.02;5.72;;;;;;;8.75;95.69;100837.81;4925559;29;20079;-77
2023/04/14 08:10:16;;;;;;;13.50;5.50;;;;;;;8.95;94.73;100835.00;4926124;29;21060;-78
2023/04/14 08:12:41;;;;;;;15.90;5.97;;;;;;;9.29;94.36;100832.47;4929553;29;20082;-78
2023/04/14 08:15:07;;;;;;;12.57;5.60;;;;;;;9.21;91.75;100839.09;4911372;29;20550;-77
2023/04/14 08:17:32;;;;;;;10.68;4.82;;;;;;;9.53;89.96;100837.72;4928933;29;20050;-78
2023/04/14 08:19:57;;;;;;;16.88;5.00;;;;;;;9.80;88.36;100846.16;4909492;29;20027;-78
2023/04/14 08:22:24;;;;;;;15.35;6.57;;;;;;;9.70;89.96;100841.19;4930467;29;20475;-78
2023/04/14 08:24:50;;;;;;;10.70;4.55;;;;;;;9.58;88.26;100842.19;4907217;29;20175;-78
2023/04/14 08:27:15;;;;;;;11.35;5.28;;;;;;;9.78;87.23;100831.72;4931662;29;20106;-78
2023/04/14 08:29:40;;;;;;;10.23;4.35;;;;;;;9.71;85.30;100818.44;4911529;29;20175;-78
2023/04/14 08:32:06;;;;;;;11.65;4.45;;;;;;;9.63;87.29;100830.69;4930026;29;20192;-78
2023/04/14 08:34:31;;;;;;;10.43;4.80;;;;;;;9.72;86.87;100833.25;4919702;29;20375;-78
2023/04/14 08:36:59;;;;;;;13.63;4.65;;;;;;;10.13;85.25;100833.50;4922938;29;20028;-79
2023/04/14 08:39:25;;;;;;;9.60;4.78;;;;;;;10.18;85.74;100827.56;4922108;29;21268;-78
2023/04/14 08:41:52;;;;;;;10.32;5.47;;;;;;;10.15;84.14;100829.13;4926281;29;20126;-76
2023/04/14 08:44:17;;;;;;;15.63;4.63;;;;;;;10.40;82.21;100831.53;4926982;29;20028;-75
2023/04/14 08:46:45;;;;;;;8.40;4.75;;;;;;;10.50;81.14;100830.09;4925894;29;20038;-75
2023/04/14 08:49:16;;;;;;;12.70;3.75;;;;;;;10.40;81.90;100830.75;4925718;29;20034;-75
2023/04/14 08:51:44;;;;;;;10.13;3.53;;;;;;;10.35;82.15;100829.06;4922736;29;20047;-75
2023/04/14 08:54:10;;;;;;;8.05;3.35;;;;;;;10.56;79.32;100829.38;4911537;29;20040;-75
2023/04/14 08:56:37;;;;;;;9.65;4.05;;;;;;;10.85;79.70;100832.53;4911449;29;20024;-76
2023/04/14 08:59:06;;;;;;;13.02;4.18;;;;;;;10.73;81.22;100830.78;4930823;29;20031;-74
2023/04/14 09:01:33;;;;;;;9.90;3.63;;;;;;;10.86;81.51;100827.75;4927825;29;20032;-75
2023/04/14 09:04:02;;;;;;;11.63;4.00;;;;;;;11.06;79.58;100831.97;4922672;29;20031;-75
2023/04/14 09:06:28;;;;;;;8.00;3.53;;;;;;;10.69;80.50;100823.50;4921780;29;20042;-83
2023/04/14 09:08:54;;;;;;;9.93;3.75;;;;;;;10.93;78.86;100833.44;4910417;29;20051;-83
2023/04/14 09:11:19;;;;;;;6.95;3.30;;;;;;;11.12;79.12;100835.25;4928374;29;20036;-79
2023/04/14 09:13:47;;;;;;;14.68;4.45;;;;;;;11.26;77.67;100828.97;4926884;29;20034;-80
2023/04/14 09:16:13;;;;;;;10.65;2.90;;;;;;;11.22;74.73;100822.56;4925511;29;20635;-81
2023/04/14 09:18:39;;;;;;;7.05;3.45;;;;;;;11.48;76.78;100830.81;4923896;29;20047;-77
2023/04/14 09:21:05;;;;;;;8.35;3.20;;;;;;;11.49;78.16;100828.81;4925611;29;20145;-76
2023/04/14 09:23:30;;;;;;;9.88;4.05;;;;;;;11.24;77.03;100820.19;4909018;29;20450;-77
2023/04/14 09:25:58;;;;;;;7.18;3.80;;;;;;;11.57;77.56;100827.69;4928250;29;20027;-77
2023/04/14 09:28:23;;;;;;;7.78;3.65;;;;;;;11.48;76.97;100830.81;4927226;29;20057;-77
2023/04/14 09:30:48;;;;;;;10.43;3.47;;;;;;;11.64;73.92;100821.34;4929849;29;20513;-79
2023/04/14 09:33:20;;;;;;;8.80;4.50;;;;;;;11.74;75.16;100824.28;4923297;29;20039;-79
2023/04/14 09:35:49;;;;;;;9.43;4.00;;;;;;;11.69;75.27;100829.44;4924248;29;20028;-79
2023/04/14 09:38:29;;;;;;;7.20;4.05;;;;;;;11.42;76.34;100823.16;4904687;29;20057;-79
2023/04/14 09:40:55;;;;;;;5.85;3.72;;;;;;;11.89;74.43;100819.63;4922758;29;20031;-78
2023/04/14 09:43:26;;;;;;;8.50;3.45;;;;;;;11.99;73.04;100821.72;4926285;29;20413;-79
2023/04/14 09:45:52;;;;;;;9.82;3.30;;;;;;;11.68;72.68;100823.03;4908695;29;20034;-79
2023/04/14 09:48:19;;;;;;;7.18;3.65;;;;;;;11.57;74.41;100817.31;4925675;29;20126;-78
2023/04/14 09:51:04;;;;;;;14.43;4.30;;;;;;;12.14;72.07;100819.00;4927177;29;20039;-78
2023/04/14 09:53:32;;;;;;;12.50;4.15;;;;;;;12.41;70.33;100820.38;4923173;29;20047;-78
2023/04/14 09:55:58;;;;;;;10.25;3.63;;;;;;;12.19;70.37;100818.63;4912155;29;20046;-78
2023/04/14 09:58:37;;;;;;;12.93;3.40;;;;;;;12.13;69.87;100823.00;4928535;29;20019;-78
2023/04/14 10:01:04;;;;;;;4.50;2.47;;;;;;;12.28;68.66;100821.09;4925946;29;20095;-79
2023/04/14 10:03:38;;;;;;;9.02;3.00;;;;;;;12.25;70.19;100822.69;4922815;29;20054;-78
2023/04/14 10:06:09;;;;;;;11.80;3.22;;;;;;;12.33;68.00;100820.72;4911294;29;20510;-77
2023/04/14 10:08:39;;;;;;;12.55;4.00;;;;;;;12.58;66.98;100824.47;4925355;29;20031;-78
2023/04/14 10:11:18;;;;;;;12.18;3.58;;;;;;;12.53;69.17;100824.06;4909204;29;20032;-78
2023/04/14 10:13:45;;;;;;;11.15;3.10;;;;;;;12.90;67.27;100823.00;4926976;29;20054;-78
2023/04/14 10:16:11;;;;;;;6.45;2.90;;;;;;;12.35;66.04;100821.97;4926154;29;20054;-78
2023/04/14 10:18:36;;;;;;;12.95;3.65;;;;;;;12.23;66.79;100818.63;4925616;29;20055;-78
2023/04/14 10:21:02;;;;;;;7.28;3.88;;;;;;;12.69;66.28;100806.88;4923578;29;20462;-78
2023/04/14 10:23:30;;;;;;;13.70;3.03;;;;;;;12.71;64.06;100810.91;4905171;29;20028;-78
2023/04/14 10:25:55;;;;;;;11.10;3.38;;;;;;;13.30;64.85;100807.94;4921157;29;20498;-78
2023/04/14 10:28:22;;;;;;;9.85;3.65;;;;;;;13.30;64.45;100807.09;4924553;29;20043;-78
2023/04/14 10:30:53;;;;;;;11.43;3.17;;;;;;;13.23;64.43;100808.66;4903118;29;20179;-78
2023/04/14 10:33:18;;;;;;;7.68;3.05;;;;;;;12.33;64.38;100807.50;4906383;29;20038;-78
2023/04/14 10:35:46;;;;;;;12.88;3.80;;;;;;;12.35;64.63;100799.50;4906989;29;20024;-78
2023/04/14 10:38:12;;;;;;;7.47;3.00;;;;;;;12.66;64.66;100802.84;4922784;29;20784;-78
2023/04/14 10:40:53;;;;;;;9.10;3.92;;;;;;;13.45;63.70;100803.13;4903708;29;20041;-78
2023/04/14 10:43:18;;;;;;;8.98;2.90;;;;;;;13.54;62.90;100795.09;4923460;29;20482;-77
2023/04/14 10:45:57;;;;;;;8.82;2.70;;;;;;;13.41;59.82;100788.25;4897676;29;20034;-78
2023/04/14 10:48:31;;;;;;;8.25;3.08;;;;;;;13.54;60.21;100788.69;4908451;29;20558;-78
2023/04/14 10:51:04;;;;;;;10.18;3.15;;;;;;;13.25;63.33;100787.78;4917375;29;20521;-77
2023/04/14 10:53:42;;;;;;;7.88;3.35;;;;;;;13.30;62.98;100787.44;4923606;29;20040;-78
2023/04/14 10:56:07;;;;;;;7.88;3.08;;;;;;;14.00;62.09;100788.66;4906577;29;20428;-78
2023/04/14 10:58:34;;;;;;;14.52;3.45;;;;;;;14.16;60.94;100795.88;4922848;29;20035;-78
2023/04/14 11:00:59;;;;;;;13.50;3.20;;;;;;;13.48;60.60;100791.06;4920417;29;20039;-78
2023/04/14 11:03:29;;;;;;;10.82;2.88;;;;;;;13.18;61.67;100795.00;4908229;29;20033;-77
2023/04/14 11:05:54;;;;;;;9.18;2.38;;;;;;;12.79;61.72;100784.44;4906334;29;20486;-77
2023/04/14 11:08:24;;;;;;;8.48;2.63;;;;;;;12.76;60.44;100790.06;4911044;29;20020;-77
2023/04/14 11:10:59;;;;;;;11.90;2.17;;;;;;;13.32;60.89;100790.63;4911928;29;20038;-79
2023/04/14 11:13:25;;;;;;;8.98;3.30;;;;;;;13.98;60.63;100787.47;4926813;29;20043;-78
2023/04/14 11:15:56;;;;;;;7.65;2.65;;;;;;;14.18;59.48;100782.19;4928755;29;20019;-78
2023/04/14 11:18:28;;;;;;;6.68;2.25;;;;;;;14.16;56.74;100778.97;4930175;29;20050;-78
2023/04/14 11:21:14;;;;;;;7.70;2.03;;;;;;;13.86;57.91;100774.59;4908750;29;20032;-78
2023/04/14 11:23:40;;;;;;;12.18;3.35;;;;;;;13.37;57.71;100776.22;4930530;29;20071;-78
2023/04/14 11:26:08;;;;;;;8.82;2.65;;;;;;;13.11;58.53;100772.53;4926416;29;20032;-77
2023/04/14 11:28:40;;;;;;;7.95;2.45;;;;;;;13.39;58.15;100768.97;4913917;29;20509;-78